Time;durP1;ratioP1;P1;durP2;ratioP2;P2;SDS_P1;SDS_P2;PMS_P1;PMS_P2;Temp;Humidity;BMP_temperature;BMP_pressure;BME280_temperature;BME280_humidity;BME280_pressure;Samples;Min_cycle;Max_cycle;Signal;HPM_P1;HPM_P2
2021/05/12 07:17:08;;;;;;;13.73;2.97;;;19.50;99.90;;;;;;6152884;23;20563;-78
2021/05/12 07:19:34;;;;;;;13.15;3.63;;;19.50;99.90;;;;;;6230869;23;20591;-79
2021/05/12 07:22:00;;;;;;;10.15;2.72;;;19.70;99.90;;;;;;6231090;23;20228;-79
2021/05/12 07:24:26;;;;;;;12.10;3.85;;;19.80;99.90;;;;;;6232165;23;20167;-78
2021/05/12 07:26:53;;;;;;;9.80;3.00;;;19.90;99.90;;;;;;6231963;23;20939;-79
2021/05/12 07:29:19;;;;;;;13.05;3.47;;;19.90;99.90;;;;;;6232231;23;20181;-79
2021/05/12 07:31:45;;;;;;;13.88;3.50;;;20.00;99.90;;;;;;6230867;23;20173;-78
2021/05/12 07:34:13;;;;;;;14.68;3.70;;;20.10;99.90;;;;;;6194200;23;20177;-78
2021/05/12 07:36:39;;;;;;;10.85;3.60;;;19.90;99.90;;;;;;6232137;23;20223;-78
2021/05/12 07:39:07;;;;;;;12.13;3.20;;;19.90;99.90;;;;;;6256704;22;20188;-77
2021/05/12 07:41:34;;;;;;;15.68;3.58;;;20.00;99.90;;;;;;6262075;22;20192;-78
2021/05/12 07:44:01;;;;;;;12.48;3.40;;;19.90;99.90;;;;;;6262122;22;20172;-78
2021/05/12 07:46:27;;;;;;;14.25;3.92;;;20.20;99.90;;;;;;6262228;22;20176;-78
2021/05/12 07:48:53;;;;;;;10.57;3.10;;;20.20;99.90;;;;;;6262047;22;20982;-76
2021/05/12 07:51:20;;;;;;;9.35;2.85;;;20.10;99.90;;;;;;6261609;22;20173;-79
2021/05/12 07:53:47;;;;;;;14.13;3.55;;;20.20;99.90;;;;;;6262869;22;20172;-77
2021/05/12 07:56:13;;;;;;;10.63;2.95;;;20.40;99.90;;;;;;6262612;22;20168;-77
2021/05/12 07:58:39;;;;;;;12.88;3.42;;;20.40;99.90;;;;;;6261521;22;21033;-79
2021/05/12 08:01:15;;;;;;;11.27;2.80;;;20.40;99.90;;;;;;6262371;22;20193;-77
2021/05/12 08:03:41;;;;;;;12.55;3.17;;;20.60;99.90;;;;;;6261091;22;20165;-78
2021/05/12 08:06:08;;;;;;;13.35;3.35;;;20.70;99.90;;;;;;6262900;22;20573;-78
2021/05/12 08:08:35;;;;;;;12.77;3.35;;;20.60;99.90;;;;;;6263354;22;20196;-78
2021/05/12 08:11:01;;;;;;;12.30;2.70;;;20.50;99.90;;;;;;6262215;22;20176;-77
2021/05/12 08:13:27;;;;;;;12.82;3.50;;;20.50;99.90;;;;;;6262082;22;20172;-79
2021/05/12 08:15:54;;;;;;;12.98;3.75;;;20.70;99.90;;;;;;6262575;22;20181;-79
2021/05/12 08:18:20;;;;;;;13.95;3.30;;;21.00;99.90;;;;;;6261991;22;20200;-79
2021/05/12 08:20:46;;;;;;;13.25;3.40;;;21.10;99.90;;;;;;6262215;22;20216;-77
2021/05/12 08:23:12;;;;;;;13.27;3.60;;;21.10;99.90;;;;;;6261585;22;20172;-79
2021/05/12 08:25:44;;;;;;;13.82;3.35;;;21.00;99.90;;;;;;6261124;22;20177;-78
2021/05/12 08:28:10;;;;;;;16.13;3.63;;;20.90;99.90;;;;;;6261900;22;20173;-77
2021/05/12 08:30:38;;;;;;;11.15;3.13;;;20.90;99.90;;;;;;6262594;22;20176;-76
2021/05/12 08:33:05;;;;;;;10.40;2.50;;;21.00;99.90;;;;;;6262146;22;20173;-75
2021/05/12 08:35:31;;;;;;;11.25;3.13;;;20.90;99.90;;;;;;6263108;22;20214;-78
2021/05/12 08:37:57;;;;;;;12.63;3.55;;;21.20;99.90;;;;;;6261651;22;20630;-77
2021/05/12 08:40:24;;;;;;;14.23;3.42;;;21.40;99.90;;;;;;6261631;22;20196;-76
2021/05/12 08:42:53;;;;;;;15.80;4.10;;;21.50;99.90;;;;;;6261987;22;20176;-77
2021/05/12 08:45:20;;;;;;;16.10;3.97;;;21.40;99.90;;;;;;6262345;22;20187;-77
2021/05/12 08:47:54;;;;;;;8.52;2.83;;;21.40;99.90;;;;;;6261726;22;20179;-76
2021/05/12 08:50:20;;;;;;;13.25;3.50;;;21.30;99.90;;;;;;6263398;22;20169;-78
2021/05/12 08:52:47;;;;;;;11.00;3.13;;;21.40;99.90;;;;;;6262354;22;20191;-78
2021/05/12 08:55:14;;;;;;;12.75;3.42;;;21.30;99.90;;;;;;6262388;22;20184;-77
2021/05/12 08:57:40;;;;;;;11.13;3.47;;;21.40;99.90;;;;;;6262405;22;20173;-77
2021/05/12 09:00:08;;;;;;;12.73;3.47;;;21.50;99.90;;;;;;6259075;22;20200;-77
2021/05/12 09:02:35;;;;;;;12.52;3.78;;;21.60;99.90;;;;;;6262694;22;20168;-77
2021/05/12 09:05:03;;;;;;;14.63;3.92;;;21.90;99.90;;;;;;6262477;22;20580;-76
2021/05/12 09:07:30;;;;;;;14.38;3.53;;;22.00;99.90;;;;;;6260177;22;20617;-76
2021/05/12 09:09:58;;;;;;;13.05;3.42;;;22.10;99.90;;;;;;6262764;22;20214;-78
2021/05/12 09:12:24;;;;;;;9.65;2.88;;;22.20;99.90;;;;;;6262876;22;20189;-78
2021/05/12 09:14:55;;;;;;;10.95;3.65;;;21.80;99.90;;;;;;6262283;22;20181;-78
2021/05/12 09:17:31;;;;;;;13.13;3.17;;;21.70;99.90;;;;;;6262791;22;20228;-79
2021/05/12 09:19:58;;;;;;;11.75;3.33;;;21.60;99.90;;;;;;6265384;22;20254;-77
2021/05/12 09:22:24;;;;;;;10.32;2.60;;;21.80;99.90;;;;;;6264212;22;20176;-77
2021/05/12 09:25:05;;;;;;;11.35;3.70;;;21.80;99.90;;;;;;6265427;22;20681;-79
2021/05/12 09:27:32;;;;;;;10.60;3.30;;;21.90;99.90;;;;;;6264269;22;20169;-77
2021/05/12 09:29:59;;;;;;;10.45;3.40;;;21.90;99.90;;;;;;6264902;22;20177;-79
2021/05/12 09:32:42;;;;;;;12.75;3.15;;;21.80;99.90;;;;;;6265580;22;20177;-79
2021/05/12 09:35:09;;;;;;;12.85;3.25;;;21.90;99.90;;;;;;6265246;22;20172;-77
2021/05/12 09:37:37;;;;;;;11.80;2.97;;;21.80;99.90;;;;;;6265990;22;20192;-78
2021/05/12 09:40:07;;;;;;;11.13;3.22;;;22.00;99.90;;;;;;6264112;22;20197;-77
2021/05/12 09:42:35;;;;;;;14.05;3.65;;;22.00;99.90;;;;;;6263757;22;20442;-78
2021/05/12 09:45:13;;;;;;;11.13;3.20;;;21.90;99.90;;;;;;6264492;22;20416;-78
2021/05/12 09:47:41;;;;;;;12.98;3.67;;;21.90;99.90;;;;;;6264986;22;20239;-77
2021/05/12 09:50:10;;;;;;;11.73;3.80;;;22.00;99.90;;;;;;6264622;22;20256;-77
2021/05/12 09:52:38;;;;;;;12.73;3.33;;;21.80;99.90;;;;;;6264014;22;20168;-78
2021/05/12 09:55:07;;;;;;;12.43;3.47;;;21.70;99.90;;;;;;6265235;22;20177;-77
2021/05/12 09:57:34;;;;;;;12.85;3.20;;;21.70;99.90;;;;;;6263463;22;20168;-79
2021/05/12 10:00:00;;;;;;;11.98;3.72;;;21.70;99.90;;;;;;6263773;22;20443;-80
2021/05/12 10:02:26;;;;;;;16.13;3.20;;;21.80;99.90;;;;;;6264762;22;20173;-78
2021/05/12 10:04:59;;;;;;;13.30;3.70;;;21.70;99.90;;;;;;6263675;22;20198;-79
2021/05/12 10:07:27;;;;;;;11.43;3.53;;;21.90;99.90;;;;;;6262829;22;20220;-78
2021/05/12 10:09:54;;;;;;;12.68;3.53;;;22.10;99.90;;;;;;6263281;22;20203;-78
2021/05/12 10:12:22;;;;;;;17.00;3.35;;;22.20;99.90;;;;;;6263665;22;20177;-77
2021/05/12 10:14:50;;;;;;;10.23;3.30;;;22.00;99.90;;;;;;6263748;22;20188;-78
2021/05/12 10:17:19;;;;;;;13.57;3.70;;;22.10;99.90;;;;;;6263455;22;20205;-79
2021/05/12 10:19:48;;;;;;;13.90;3.35;;;22.00;99.90;;;;;;6263502;22;20172;-80
2021/05/12 10:22:16;;;;;;;10.63;3.25;;;22.10;99.90;;;;;;6263393;22;20179;-78
2021/05/12 10:24:45;;;;;;;12.73;3.35;;;22.30;99.90;;;;;;6262512;22;20277;-79
2021/05/12 10:27:13;;;;;;;11.55;2.80;;;22.30;99.90;;;;;;6263162;22;20176;-78
2021/05/12 10:29:41;;;;;;;10.48;2.95;;;22.20;99.90;;;;;;6263672;22;20173;-87
2021/05/12 10:32:18;;;;;;;11.00;2.70;;;22.10;99.90;;;;;;6263534;22;20852;-78
2021/05/12 10:34:47;;;;;;;11.05;4.13;;;22.30;99.90;;;;;;6263930;22;20173;-78
2021/05/12 10:37:33;;;;;;;12.75;3.30;;;22.30;99.90;;;;;;6263487;22;20175;-78
2021/05/12 10:40:01;;;;;;;9.63;2.70;;;22.30;99.90;;;;;;6263563;22;20199;-77
2021/05/12 10:43:05;;;;;;;12.65;3.40;;;22.40;99.90;;;;;;6264747;22;20176;-79
2021/05/12 10:45:58;;;;;;;7.72;2.75;;;22.50;99.90;;;;;;6263152;22;20164;-78
2021/05/12 10:48:39;;;;;;;14.52;3.65;;;22.40;99.90;;;;;;6263899;22;21011;-78
2021/05/12 10:51:07;;;;;;;10.32;3.17;;;22.40;99.90;;;;;;6263480;22;20161;-77
2021/05/12 10:53:43;;;;;;;8.98;3.17;;;22.30;99.90;;;;;;6263131;22;20183;-76
2021/05/12 10:56:10;;;;;;;10.25;2.97;;;22.20;99.90;;;;;;6264122;22;20168;-77
2021/05/12 10:58:55;;;;;;;8.35;2.80;;;22.30;99.90;;;;;;6263599;22;20173;-77
2021/05/12 11:01:22;;;;;;;8.40;2.83;;;22.50;99.90;;;;;;6262435;22;20223;-78
2021/05/12 11:04:18;;;;;;;12.80;3.50;;;22.40;99.90;;;;;;6263941;22;20184;-79
2021/05/12 11:07:06;;;;;;;8.95;2.90;;;22.40;99.90;;;;;;6262824;22;20412;-78
2021/05/12 11:09:56;;;;;;;12.90;3.15;;;22.40;99.90;;;;;;6263694;22;20234;-77
2021/05/12 11:12:38;;;;;;;10.82;2.63;;;22.20;99.90;;;;;;6263348;22;20327;-78
2021/05/12 11:15:08;;;;;;;14.25;2.97;;;22.20;99.90;;;;;;6263357;22;20161;-77
2021/05/12 11:17:43;;;;;;;9.30;2.45;;;22.20;99.90;;;;;;6265071;22;20201;-82
2021/05/12 11:20:20;;;;;;;11.63;3.20;;;22.30;99.90;;;;;;6266027;22;20196;-81
2021/05/12 11:22:47;;;;;;;9.48;3.00;;;22.30;99.90;;;;;;6267280;22;20501;-83
2021/05/12 11:25:20;;;;;;;14.45;3.38;;;22.20;99.90;;;;;;6267727;22;20456;-84
2021/05/12 11:28:55;;;;;;;8.77;2.53;;;22.30;99.90;;;;;;6267642;22;20259;-83
2021/05/12 11:31:30;;;;;;;12.25;3.10;;;22.20;99.90;;;;;;6268095;22;20244;-82
2021/05/12 11:33:57;;;;;;;12.48;2.97;;;22.30;99.90;;;;;;6269839;22;20478;-80
2021/05/12 11:36:28;;;;;;;12.10;3.38;;;22.30;99.90;;;;;;6268870;22;20832;-82
2021/05/12 11:38:54;;;;;;;8.70;2.83;;;22.30;99.90;;;;;;6268935;22;20532;-81
2021/05/12 11:41:23;;;;;;;12.63;3.60;;;22.40;99.90;;;;;;6267043;22;20207;-81
2021/05/12 11:43:52;;;;;;;11.70;3.28;;;22.50;99.90;;;;;;6264501;22;20193;-82
2021/05/12 11:46:20;;;;;;;11.23;2.78;;;22.30;99.90;;;;;;6264000;22;20168;-81
2021/05/12 11:48:49;;;;;;;11.15;3.50;;;22.20;99.90;;;;;;6264874;22;20188;-77
2021/05/12 11:51:37;;;;;;;13.10;3.53;;;22.30;99.90;;;;;;6266037;22;20165;-80
2021/05/12 11:54:07;;;;;;;8.52;2.92;;;22.30;99.90;;;;;;6263684;22;20173;-80
2021/05/12 11:56:39;;;;;;;11.10;3.20;;;22.20;99.90;;;;;;6264046;22;20165;-81
2021/05/12 11:59:06;;;;;;;11.82;2.92;;;22.20;99.90;;;;;;6264056;22;20171;-78
2021/05/12 12:01:37;;;;;;;12.32;3.95;;;22.20;99.90;;;;;;6263771;22;20753;-76
2021/05/12 12:04:11;;;;;;;13.23;3.80;;;22.20;99.90;;;;;;6263175;22;20818;-78
2021/05/12 12:06:42;;;;;;;10.15;2.90;;;22.20;99.90;;;;;;6262529;22;20173;-78
2021/05/12 12:09:08;;;;;;;8.38;3.20;;;22.40;99.90;;;;;;6262604;22;20749;-78
2021/05/12 12:11:36;;;;;;;11.43;3.35;;;22.40;99.90;;;;;;6262743;22;20168;-80
2021/05/12 12:14:03;;;;;;;16.27;4.68;;;22.40;99.90;;;;;;6263363;22;20176;-80
2021/05/12 12:16:30;;;;;;;13.13;3.95;;;22.50;99.90;;;;;;6264196;22;20173;-78
2021/05/12 12:18:57;;;;;;;11.98;3.88;;;22.50;99.90;;;;;;6263950;22;20161;-80
2021/05/12 12:21:29;;;;;;;13.10;4.18;;;22.60;99.90;;;;;;6265363;22;20196;-82
2021/05/12 12:23:57;;;;;;;14.73;4.38;;;22.60;99.90;;;;;;6265164;22;20172;-80
2021/05/12 12:26:25;;;;;;;11.38;4.10;;;22.70;99.90;;;;;;6265348;22;20587;-82
2021/05/12 12:28:57;;;;;;;9.07;2.83;;;22.70;99.90;;;;;;6265642;22;20175;-81
2021/05/12 12:31:26;;;;;;;13.27;4.22;;;22.60;99.90;;;;;;6265027;22;20173;-80
2021/05/12 12:34:17;;;;;;;13.43;4.18;;;22.70;99.90;;;;;;6264115;22;20234;-80
2021/05/12 12:36:57;;;;;;;10.27;3.65;;;22.70;99.90;;;;;;6263736;22;20230;-79
2021/05/12 12:39:40;;;;;;;12.80;3.83;;;22.60;99.90;;;;;;6263184;22;20203;-78
2021/05/12 12:42:08;;;;;;;13.32;4.53;;;22.40;99.90;;;;;;6263015;22;20193;-79
2021/05/12 12:44:36;;;;;;;12.60;4.22;;;22.30;99.90;;;;;;6264065;22;20183;-77
2021/05/12 12:47:04;;;;;;;15.93;4.85;;;22.40;99.90;;;;;;6262406;22;20176;-77
2021/05/12 12:49:35;;;;;;;13.95;4.32;;;22.30;99.90;;;;;;6263554;22;20176;-79
2021/05/12 12:52:12;;;;;;;12.02;3.28;;;22.00;99.90;;;;;;6265769;22;20172;-78
2021/05/12 12:57:24;;;;;;;10.60;4.10;;;21.80;99.90;;;;;;6266571;22;20241;-82
2021/05/12 13:00:16;;;;;;;9.40;3.85;;;21.70;99.90;;;;;;6267190;22;20177;-79
2021/05/12 13:02:55;;;;;;;9.05;3.40;;;21.70;99.90;;;;;;6261349;22;20913;-82
2021/05/12 13:05:22;;;;;;;10.60;3.13;;;21.90;99.90;;;;;;6265877;22;20220;-77
2021/05/12 13:07:50;;;;;;;9.00;2.95;;;21.90;99.90;;;;;;6264970;22;20165;-81
2021/05/12 13:10:33;;;;;;;7.40;3.00;;;21.80;99.90;;;;;;6264859;22;20187;-76
2021/05/12 13:12:59;;;;;;;11.10;3.17;;;21.80;99.90;;;;;;6264073;22;20249;-78
2021/05/12 13:15:28;;;;;;;9.55;3.80;;;21.60;99.90;;;;;;6265744;22;20219;-80
2021/05/12 13:17:57;;;;;;;9.15;3.70;;;21.50;99.90;;;;;;6266077;22;20204;-78
2021/05/12 13:20:25;;;;;;;8.10;2.60;;;21.30;99.90;;;;;;6265207;22;20192;-80
2021/05/12 13:23:06;;;;;;;15.48;2.45;;;20.90;99.90;;;;;;6266432;22;20161;-77
2021/05/12 13:25:33;;;;;;;6.18;2.38;;;20.90;99.90;;;;;;6266898;22;20496;-80
2021/05/12 13:28:00;;;;;;;7.40;2.50;;;20.80;99.90;;;;;;6266447;22;20199;-78
2021/05/12 13:30:27;;;;;;;6.10;2.00;;;20.80;99.90;;;;;;6266310;22;20177;-81
2021/05/12 13:32:54;;;;;;;8.55;2.40;;;20.80;99.90;;;;;;6265926;22;20173;-78
2021/05/12 13:35:20;;;;;;;9.32;2.90;;;20.80;99.90;;;;;;6265623;22;20204;-79
2021/05/12 13:37:47;;;;;;;11.30;4.35;;;20.90;99.90;;;;;;6265630;22;20601;-80
2021/05/12 13:40:14;;;;;;;6.75;1.70;;;20.80;99.90;;;;;;6266402;22;20181;-79
2021/05/12 13:42:41;;;;;;;7.05;2.50;;;20.70;99.90;;;;;;6264484;22;20172;-78
2021/05/12 13:45:10;;;;;;;5.80;2.25;;;20.40;99.90;;;;;;6264298;22;20168;-80
2021/05/12 13:47:37;;;;;;;7.82;2.42;;;20.30;99.90;;;;;;6264093;22;20195;-78
2021/05/12 13:50:06;;;;;;;3.63;1.35;;;20.00;99.90;;;;;;6263670;22;20177;-78
2021/05/12 13:52:37;;;;;;;7.63;1.58;;;19.70;99.90;;;;;;6264369;22;20429;-78
2021/05/12 13:55:07;;;;;;;8.93;2.35;;;19.70;99.90;;;;;;6267000;22;20200;-81
2021/05/12 13:57:48;;;;;;;4.18;1.48;;;19.40;99.90;;;;;;6266343;22;20199;-77
2021/05/12 14:00:29;;;;;;;8.93;1.95;;;19.50;99.90;;;;;;6266273;22;20770;-80
2021/05/12 14:02:57;;;;;;;11.27;2.67;;;19.30;99.90;;;;;;6265290;22;20200;-78
2021/05/12 14:05:25;;;;;;;6.13;2.05;;;19.30;99.90;;;;;;6265728;22;20172;-76
2021/05/12 14:07:52;;;;;;;7.32;2.38;;;19.40;99.90;;;;;;6264498;22;20172;-78
2021/05/12 14:10:19;;;;;;;6.28;2.22;;;19.50;99.90;;;;;;6263654;22;20226;-77
2021/05/12 14:12:49;;;;;;;8.70;2.92;;;19.40;99.90;;;;;;6266030;22;20183;-77
2021/05/12 14:15:31;;;;;;;7.68;2.13;;;19.20;99.90;;;;;;6265143;22;20180;-80
2021/05/12 14:17:58;;;;;;;8.50;2.10;;;19.00;99.90;;;;;;6264053;22;20200;-80
2021/05/12 14:20:24;;;;;;;7.60;1.63;;;19.00;99.90;;;;;;6264382;22;20216;-77
2021/05/12 14:22:50;;;;;;;7.43;1.80;;;19.10;99.90;;;;;;6263994;22;20338;-78
2021/05/12 14:25:17;;;;;;;8.90;1.70;;;19.20;99.90;;;;;;6263360;22;20177;-75
2021/05/12 14:27:46;;;;;;;4.38;1.98;;;19.20;99.90;;;;;;6263268;22;20187;-78
2021/05/12 14:30:14;;;;;;;6.43;1.92;;;19.10;99.90;;;;;;6264599;22;20172;-77
2021/05/12 14:32:40;;;;;;;7.35;2.00;;;19.10;99.90;;;;;;6263595;22;20175;-79
2021/05/12 14:35:08;;;;;;;7.07;1.80;;;19.00;99.90;;;;;;6264595;22;20184;-78
2021/05/12 14:37:34;;;;;;;6.97;1.95;;;18.90;99.90;;;;;;6263235;22;20189;-76
2021/05/12 14:40:02;;;;;;;5.95;1.95;;;19.00;99.90;;;;;;6264673;22;20734;-75
2021/05/12 14:42:28;;;;;;;7.85;2.63;;;19.00;99.90;;;;;;6264705;22;20795;-77
2021/05/12 14:44:55;;;;;;;4.80;1.63;;;19.20;99.90;;;;;;6264761;22;20172;-76
2021/05/12 14:47:21;;;;;;;9.05;2.40;;;19.30;99.90;;;;;;6263721;22;20611;-75
2021/05/12 14:49:48;;;;;;;6.88;2.45;;;19.40;99.90;;;;;;6264497;22;20176;-84
2021/05/12 14:52:21;;;;;;;6.65;2.55;;;19.30;99.90;;;;;;6240428;22;20191;-78
2021/05/12 14:54:55;;;;;;;8.40;1.98;;;19.20;99.90;;;;;;6264956;22;20623;-81
2021/05/12 14:57:44;;;;;;;8.45;3.05;;;19.20;99.90;;;;;;6264532;22;20189;-79
2021/05/12 15:00:16;;;;;;;7.80;1.92;;;19.10;99.90;;;;;;6263699;22;20231;-80
2021/05/12 15:02:50;;;;;;;6.25;2.20;;;19.10;99.90;;;;;;6264358;22;20812;-80
2021/05/12 15:05:36;;;;;;;9.07;2.33;;;18.90;99.90;;;;;;6266041;22;20169;-81
2021/05/12 15:08:07;;;;;;;8.73;2.10;;;18.80;99.90;;;;;;6263405;22;20166;-80
2021/05/12 15:10:33;;;;;;;5.18;2.10;;;18.80;99.90;;;;;;6264123;22;20165;-79
2021/05/12 15:12:59;;;;;;;8.40;2.22;;;18.80;99.90;;;;;;6264015;22;20179;-79
2021/05/12 15:15:26;;;;;;;5.10;1.38;;;18.90;99.90;;;;;;6265501;22;20176;-81
2021/05/12 15:17:52;;;;;;;7.88;2.10;;;18.90;99.90;;;;;;6265075;22;20785;-80
2021/05/12 15:20:18;;;;;;;7.72;2.35;;;18.90;99.90;;;;;;6263292;22;20817;-80
2021/05/12 15:22:44;;;;;;;7.32;2.08;;;18.70;99.90;;;;;;6263806;22;20165;-78
2021/05/12 15:25:15;;;;;;;8.15;2.15;;;18.60;99.90;;;;;;6263556;22;20181;-78
2021/05/12 15:27:42;;;;;;;6.18;2.10;;;18.40;99.90;;;;;;6265334;22;20172;-77
2021/05/12 15:30:09;;;;;;;4.32;1.35;;;18.30;99.90;;;;;;6264323;22;20176;-80
2021/05/12 15:32:36;;;;;;;6.72;1.98;;;18.20;99.90;;;;;;6263174;22;20695;-80
2021/05/12 15:35:02;;;;;;;5.80;1.60;;;18.10;99.90;;;;;;6262509;22;20180;-79
2021/05/12 15:37:29;;;;;;;6.03;1.75;;;18.20;99.90;;;;;;6263256;22;20196;-79
2021/05/12 15:39:55;;;;;;;5.82;1.77;;;18.20;99.90;;;;;;6263491;22;20168;-82
2021/05/12 15:42:23;;;;;;;7.65;2.00;;;18.20;99.90;;;;;;6263384;22;20196;-81
2021/05/12 15:44:49;;;;;;;4.47;1.42;;;18.10;99.90;;;;;;6262793;22;20204;-79
2021/05/12 15:47:16;;;;;;;6.43;1.95;;;18.10;99.90;;;;;;6264031;22;20172;-78
2021/05/12 15:49:42;;;;;;;6.40;2.25;;;17.90;99.90;;;;;;6263422;22;20563;-79
2021/05/12 15:52:08;;;;;;;7.45;2.17;;;17.80;99.90;;;;;;6263513;22;20862;-79
2021/05/12 15:54:35;;;;;;;9.55;1.95;;;17.90;99.90;;;;;;6264178;22;20671;-77
2021/05/12 15:57:01;;;;;;;9.43;2.53;;;17.90;99.90;;;;;;6264382;22;20239;-80
2021/05/12 15:59:28;;;;;;;8.75;2.08;;;17.80;99.90;;;;;;6263402;22;20573;-81
2021/05/12 16:01:55;;;;;;;8.07;2.10;;;17.80;99.90;;;;;;6263622;22;20188;-80
2021/05/12 16:04:21;;;;;;;6.75;2.25;;;17.70;99.90;;;;;;6263978;22;20179;-77
2021/05/12 16:06:49;;;;;;;11.60;2.95;;;17.60;99.90;;;;;;6262919;22;20258;-78
2021/05/12 16:09:16;;;;;;;5.05;2.03;;;17.50;99.90;;;;;;6262163;22;20183;-79
2021/05/12 16:11:42;;;;;;;7.03;2.10;;;17.40;99.90;;;;;;6262071;22;20639;-79
2021/05/12 16:14:08;;;;;;;7.78;1.95;;;17.30;99.90;;;;;;6262455;22;20169;-78
2021/05/12 16:16:36;;;;;;;5.53;1.77;;;17.20;99.90;;;;;;6261692;22;20522;-79
2021/05/12 16:19:04;;;;;;;8.32;2.53;;;17.20;99.90;;;;;;6262516;22;20247;-79
2021/05/12 16:21:31;;;;;;;7.50;2.15;;;17.20;99.90;;;;;;6262811;22;20207;-79
2021/05/12 16:23:57;;;;;;;4.90;1.60;;;17.20;99.90;;;;;;6262240;22;20226;-77
2021/05/12 16:26:24;;;;;;;7.05;2.05;;;17.20;99.90;;;;;;6261708;22;20180;-77
2021/05/12 16:28:51;;;;;;;6.10;1.60;;;17.30;99.90;;;;;;6262353;22;20577;-78
2021/05/12 16:31:17;;;;;;;9.23;2.00;;;17.30;99.90;;;;;;6262927;22;20270;-78
2021/05/12 16:33:44;;;;;;;6.65;1.85;;;17.30;99.90;;;;;;6263179;22;20176;-78
2021/05/12 16:36:10;;;;;;;7.80;2.25;;;17.20;99.90;;;;;;6262818;22;20168;-76
2021/05/12 16:38:37;;;;;;;7.32;2.60;;;17.20;99.90;;;;;;6262793;22;20188;-80
2021/05/12 16:41:03;;;;;;;6.78;1.98;;;17.20;99.90;;;;;;6262036;22;20193;-80
2021/05/12 16:43:29;;;;;;;7.55;2.00;;;17.20;99.90;;;;;;6262071;22;20861;-80
2021/05/12 16:45:56;;;;;;;8.80;2.15;;;17.10;99.90;;;;;;6262924;22;20176;-79
2021/05/12 16:48:22;;;;;;;6.40;1.77;;;16.90;99.90;;;;;;6262270;22;20187;-79
2021/05/12 16:50:51;;;;;;;7.45;2.17;;;16.80;99.90;;;;;;6262663;22;20168;-79
2021/05/12 16:53:17;;;;;;;4.75;1.55;;;16.70;99.90;;;;;;6262608;22;20172;-79
2021/05/12 16:55:44;;;;;;;9.55;1.77;;;16.50;99.90;;;;;;6262998;22;20180;-79
2021/05/12 16:58:11;;;;;;;4.05;1.83;;;16.40;99.90;;;;;;6261861;22;20172;-79
2021/05/12 17:00:37;;;;;;;6.97;1.75;;;16.30;99.90;;;;;;6261907;22;20192;-78
2021/05/12 17:03:04;;;;;;;5.93;1.65;;;16.20;99.90;;;;;;6262350;22;20173;-77
2021/05/12 17:05:30;;;;;;;9.57;2.50;;;16.20;99.90;;;;;;6261279;22;20177;-76
2021/05/12 19:44:21;;;;;;;6.57;1.87;;;14.00;99.90;;;;;;6233359;22;20223;-75
2021/05/12 19:46:47;;;;;;;5.20;2.50;;;13.90;99.90;;;;;;6232219;23;20178;-75
2021/05/12 19:49:14;;;;;;;8.33;2.33;;;13.80;99.90;;;;;;6234085;23;20618;-75
2021/05/12 19:51:40;;;;;;;5.63;2.17;;;13.70;99.90;;;;;;6232960;23;20427;-75
2021/05/12 19:54:08;;;;;;;9.43;2.07;;;13.70;99.90;;;;;;6233791;23;20169;-78
2021/05/12 19:56:39;;;;;;;7.87;2.10;;;13.60;99.90;;;;;;6233990;23;20293;-78
2021/05/12 19:59:05;;;;;;;5.20;2.10;;;13.50;99.90;;;;;;6232513;23;20173;-79
2021/05/12 20:01:35;;;;;;;8.27;2.80;;;13.50;99.90;;;;;;6232261;23;20198;-75
2021/05/12 20:04:04;;;;;;;7.47;2.50;;;13.50;99.90;;;;;;6232505;23;20593;-74
2021/05/12 20:06:40;;;;;;;6.73;2.70;;;13.40;99.90;;;;;;6233740;23;20173;-74
2021/05/12 20:09:10;;;;;;;7.30;3.17;;;13.30;99.90;;;;;;6202474;23;20604;-75
2021/05/12 20:11:41;;;;;;;6.87;2.70;;;13.20;99.90;;;;;;6202782;23;20459;-74
2021/05/12 20:14:08;;;;;;;9.57;2.40;;;13.20;99.90;;;;;;6202712;23;20456;-76
2021/05/12 20:16:36;;;;;;;7.80;1.93;;;13.10;99.90;;;;;;6202776;23;20177;-78
2021/05/12 20:19:02;;;;;;;9.50;2.60;;;13.10;99.90;;;;;;6203598;23;20273;-78
2021/05/12 20:21:29;;;;;;;9.07;3.13;;;13.00;99.90;;;;;;6203367;23;20282;-74
2021/05/12 20:23:55;;;;;;;9.30;3.47;;;13.00;99.90;;;;;;6202513;23;20170;-75
2021/05/12 20:26:21;;;;;;;3.97;2.20;;;13.00;99.90;;;;;;6203932;23;20174;-75
2021/05/12 20:28:48;;;;;;;6.90;2.40;;;12.90;99.90;;;;;;6202542;23;20169;-77
2021/05/12 20:31:14;;;;;;;6.93;2.60;;;12.90;99.90;;;;;;6203385;23;20194;-77
2021/05/12 20:36:58;;;;;;;11.07;3.43;;;12.80;99.90;;;;;;6202213;23;20181;-79
2021/05/12 20:39:25;;;;;;;9.77;3.30;;;12.70;99.90;;;;;;6203977;23;20286;-80
2021/05/12 20:41:52;;;;;;;8.27;2.43;;;12.70;99.90;;;;;;6202445;23;20284;-75
2021/05/12 20:44:18;;;;;;;8.23;2.53;;;12.60;99.90;;;;;;6202462;23;20202;-79
2021/05/12 20:46:44;;;;;;;5.07;2.20;;;12.60;99.90;;;;;;6204650;23;20178;-77
2021/05/12 20:49:12;;;;;;;4.77;2.00;;;12.50;99.90;;;;;;6202791;23;20177;-81
2021/05/12 20:51:38;;;;;;;5.70;2.53;;;12.50;99.90;;;;;;6203120;23;20170;-82
2021/05/12 20:54:05;;;;;;;6.80;2.33;;;12.50;99.90;;;;;;6203111;23;20178;-80
2021/05/12 20:56:31;;;;;;;8.63;2.63;;;12.50;99.90;;;;;;6203235;23;20566;-81
2021/05/12 20:58:57;;;;;;;5.63;2.60;;;12.40;99.90;;;;;;6202271;23;20236;-81
2021/05/12 21:01:23;;;;;;;11.23;2.97;;;12.40;99.90;;;;;;6202683;23;20213;-80
2021/05/12 21:03:50;;;;;;;10.10;2.97;;;12.30;99.90;;;;;;6204456;23;20178;-77
2021/05/12 21:06:17;;;;;;;10.37;3.10;;;12.30;99.90;;;;;;6203796;23;20185;-81
2021/05/12 21:08:43;;;;;;;11.10;2.60;;;12.30;99.90;;;;;;6203655;23;20198;-77
2021/05/12 21:11:10;;;;;;;12.30;4.07;;;12.30;99.90;;;;;;6201686;23;20185;-81
2021/05/12 21:13:36;;;;;;;11.90;3.47;;;12.30;99.90;;;;;;6203878;23;20302;-79
2021/05/12 21:16:03;;;;;;;12.77;3.10;;;12.40;99.90;;;;;;6203972;23;20185;-77
2021/05/12 21:18:29;;;;;;;10.87;2.87;;;12.30;99.90;;;;;;6203411;23;20223;-81
2021/05/12 21:21:04;;;;;;;9.80;3.40;;;12.40;99.90;;;;;;6203123;23;20252;-77
2021/05/12 21:23:34;;;;;;;10.43;3.13;;;12.30;99.90;;;;;;6204247;23;20447;-78
2021/05/12 21:26:01;;;;;;;8.33;2.80;;;12.20;99.90;;;;;;6204150;23;20186;-76
2021/05/12 21:28:27;;;;;;;11.87;3.80;;;12.20;99.90;;;;;;6206914;23;20178;-82
2021/05/12 21:30:58;;;;;;;10.27;3.67;;;12.10;99.90;;;;;;6205502;23;20253;-81
2021/05/12 21:33:26;;;;;;;12.50;4.07;;;12.10;99.90;;;;;;6205850;23;20220;-77
2021/05/12 21:35:52;;;;;;;9.13;3.37;;;12.10;99.90;;;;;;6206099;23;20185;-81
2021/05/12 21:38:19;;;;;;;10.47;3.30;;;12.00;99.90;;;;;;6205527;23;20173;-79
2021/05/12 21:40:47;;;;;;;13.63;3.40;;;12.00;99.90;;;;;;6205047;23;20312;-81
2021/05/12 21:43:14;;;;;;;9.70;3.00;;;12.00;99.90;;;;;;6204759;23;20229;-78
2021/05/12 21:45:40;;;;;;;10.90;3.03;;;12.00;99.90;;;;;;6205730;23;20177;-81
2021/05/12 21:48:07;;;;;;;13.30;3.60;;;12.00;99.90;;;;;;6204705;23;20949;-81
2021/05/12 21:50:36;;;;;;;15.30;3.23;;;12.00;99.90;;;;;;6204858;23;20225;-81
2021/05/12 21:53:05;;;;;;;13.23;4.47;;;12.00;99.90;;;;;;6204909;23;20586;-80
2021/05/12 21:55:31;;;;;;;10.37;3.13;;;11.90;99.90;;;;;;6204693;23;20861;-80
2021/05/12 21:57:59;;;;;;;13.50;4.67;;;11.90;99.90;;;;;;6205339;23;20245;-80
2021/05/12 22:00:35;;;;;;;12.20;3.33;;;11.90;99.90;;;;;;6204558;23;20627;-76
2021/05/12 22:03:06;;;;;;;14.70;3.47;;;11.90;99.90;;;;;;6205537;23;20170;-76
2021/05/12 22:05:38;;;;;;;12.60;3.87;;;11.80;99.90;;;;;;6205057;23;20168;-77
2021/05/12 22:08:30;;;;;;;9.33;2.83;;;11.80;99.90;;;;;;6205669;23;20333;-80
2021/05/12 22:24:46;;;;;;;10.97;3.40;;;11.60;99.90;;;;;;6204219;23;20172;-78
2021/05/12 22:27:15;;;;;;;8.73;2.93;;;11.60;99.90;;;;;;6204591;23;20201;-75
2021/05/12 22:32:27;;;;;;;10.40;3.73;;;11.50;99.90;;;;;;6204570;23;20197;-80
2021/05/12 22:34:53;;;;;;;10.03;2.97;;;11.40;99.90;;;;;;6205573;23;20178;-78
2021/05/12 22:37:20;;;;;;;10.67;3.53;;;11.40;99.90;;;;;;6204348;23;20198;-78
2021/05/12 22:39:47;;;;;;;9.73;3.03;;;11.40;99.90;;;;;;6204974;23;20261;-78
2021/05/12 22:42:14;;;;;;;11.90;3.27;;;11.30;99.90;;;;;;6203548;23;20209;-76
2021/05/12 22:44:41;;;;;;;9.63;3.00;;;11.30;99.90;;;;;;6203548;23;20173;-78
2021/05/12 22:47:08;;;;;;;11.37;3.40;;;11.30;99.90;;;;;;6203958;23;20177;-80
2021/05/12 22:49:34;;;;;;;10.57;3.47;;;11.20;99.90;;;;;;6203835;23;20200;-77
2021/05/12 22:52:00;;;;;;;17.00;4.37;;;11.20;99.90;;;;;;6203983;23;20257;-80
2021/05/12 22:54:31;;;;;;;8.70;3.07;;;11.20;99.90;;;;;;6203546;23;20821;-76
2021/05/12 22:59:38;;;;;;;16.70;3.70;;;11.10;99.90;;;;;;6203342;23;20181;-80
2021/05/12 23:02:06;;;;;;;15.33;3.80;;;11.20;99.90;;;;;;6177013;23;20190;-81
2021/05/12 23:04:32;;;;;;;14.83;3.37;;;11.10;99.90;;;;;;6203297;23;20703;-79
2021/05/12 23:06:58;;;;;;;15.93;3.20;;;11.10;99.90;;;;;;6203731;23;20225;-79
2021/05/12 23:09:24;;;;;;;11.47;3.23;;;11.10;99.90;;;;;;6203965;23;20181;-79